Noxon, Montana
Current Conditions -  °F | °C
As of 6:33 AM on Thursday 30 Oct 2014 (Local Time) from KMLP Reporting Station
Moderate Fog Moderate Fog  
Wind Chill: 27°   Ceiling: 100
Heat Index: 34°   Visibility: 0.25mi
Dew Point: 34°   Wind: 9mph
Humidity: 100%   Direction: 150°SSE
Pressure: 30.19"   Gusts: 18mph
Location:  48°N, 115.78°W
Report Text: KMLP 301233Z AUTO 15008G16KT 1/4SM FG BKN001 BKN060 OVC080 01/01 A3019 RMK AO2 T00110011
Loading
Personal Weather Stations






























Interactive Weather Map
Tropical Storm Tracking
New forecast layout! Learn more

10-Day Weather Forecast

Advertisements
Track Severe Weather on mobile